sensor_id;sensor_type;location;lat;lon;timestamp;pressure;altitude;pressure_sealevel;temperature;humidity
60583;BME280;46415;47.536;19.066;2023-05-11T00:00:11;-18588.53;;;13.23;63.29
60583;BME280;46415;47.536;19.066;2023-05-11T00:03:15;-18588.81;;;13.24;64.30
60583;BME280;46415;47.536;19.066;2023-05-11T00:06:18;-18588.53;;;13.23;64.99
60583;BME280;46415;47.536;19.066;2023-05-11T00:09:21;-18588.12;;;13.22;65.65
60583;BME280;46415;47.536;19.066;2023-05-11T00:12:23;-18587.84;;;13.21;64.85
60583;BME280;46415;47.536;19.066;2023-05-11T00:15:26;-18588.41;;;13.23;66.72
60583;BME280;46415;47.536;19.066;2023-05-11T00:18:29;-18588.66;;;13.24;65.43
60583;BME280;46415;47.536;19.066;2023-05-11T00:21:32;-18588.94;;;13.25;65.26
60583;BME280;46415;47.536;19.066;2023-05-11T00:24:34;-18588.81;;;13.24;66.19
60583;BME280;46415;47.536;19.066;2023-05-11T00:27:37;-18588.94;;;13.25;64.57
60583;BME280;46415;47.536;19.066;2023-05-11T00:30:41;-18588.94;;;13.25;67.09
60583;BME280;46415;47.536;19.066;2023-05-11T00:33:44;-18588.53;;;13.23;65.26
60583;BME280;46415;47.536;19.066;2023-05-11T00:36:46;-18587.72;;;13.20;68.22
60583;BME280;46415;47.536;19.066;2023-05-11T00:39:52;-18586.06;;;13.14;69.76
60583;BME280;46415;47.536;19.066;2023-05-11T00:42:54;-18584.97;;;13.10;69.20
60583;BME280;46415;47.536;19.066;2023-05-11T00:45:57;-18584.97;;;13.10;67.66
60583;BME280;46415;47.536;19.066;2023-05-11T00:49:00;-18583.63;;;13.05;69.60
60583;BME280;46415;47.536;19.066;2023-05-11T00:52:04;-18582.78;;;13.02;70.50
60583;BME280;46415;47.536;19.066;2023-05-11T00:55:07;-18581.97;;;12.99;70.54
60583;BME280;46415;47.536;19.066;2023-05-11T00:58:10;-18581.97;;;12.99;70.02
60583;BME280;46415;47.536;19.066;2023-05-11T01:01:13;-18580.75;;;12.94;69.99
60583;BME280;46415;47.536;19.066;2023-05-11T01:04:19;-18579.78;;;12.91;70.44
60583;BME280;46415;47.536;19.066;2023-05-11T01:08:47;-18579.50;;;12.90;71.63
60583;BME280;46415;47.536;19.066;2023-05-11T01:11:28;-18579.50;;;12.90;71.79
60583;BME280;46415;47.536;19.066;2023-05-11T01:14:40;-18579.25;;;12.89;71.80
60583;BME280;46415;47.536;19.066;2023-05-11T01:20:59;-18580.59;;;12.94;71.94
60583;BME280;46415;47.536;19.066;2023-05-11T01:27:55;-18581.56;;;12.97;71.89
60583;BME280;46415;47.536;19.066;2023-05-11T01:31:09;-18581.44;;;12.97;73.24
60583;BME280;46415;47.536;19.066;2023-05-11T01:34:16;-18581.44;;;12.97;75.34
60583;BME280;46415;47.536;19.066;2023-05-11T01:37:21;-18580.47;;;12.93;76.98
60583;BME280;46415;47.536;19.066;2023-05-11T01:40:27;-18579.38;;;12.89;78.97
60583;BME280;46415;47.536;19.066;2023-05-11T01:43:34;-18577.75;;;12.83;79.61
60583;BME280;46415;47.536;19.066;2023-05-11T01:46:38;-18576.66;;;12.79;82.22
60583;BME280;46415;47.536;19.066;2023-05-11T01:49:43;-18575.41;;;12.75;82.02
60583;BME280;46415;47.536;19.066;2023-05-11T01:52:48;-18574.59;;;12.72;82.48
60583;BME280;46415;47.536;19.066;2023-05-11T01:55:53;-18572.12;;;12.62;83.45
60583;BME280;46415;47.536;19.066;2023-05-11T01:58:57;-18570.91;;;12.58;83.74
60583;BME280;46415;47.536;19.066;2023-05-11T02:02:02;-18569.41;;;12.52;85.21
60583;BME280;46415;47.536;19.066;2023-05-11T02:05:06;-18570.50;;;12.56;86.62
60583;BME280;46415;47.536;19.066;2023-05-11T02:08:10;-18568.72;;;12.50;87.02
60583;BME280;46415;47.536;19.066;2023-05-11T02:11:15;-18569.13;;;12.51;86.44
60583;BME280;46415;47.536;19.066;2023-05-11T02:14:20;-18567.75;;;12.46;86.31
60583;BME280;46415;47.536;19.066;2023-05-11T02:17:25;-18566.53;;;12.42;85.55
60583;BME280;46415;47.536;19.066;2023-05-11T02:20:28;-18565.16;;;12.37;85.56
60583;BME280;46415;47.536;19.066;2023-05-11T02:23:32;-18564.88;;;12.36;84.76
60583;BME280;46415;47.536;19.066;2023-05-11T02:26:35;-18563.78;;;12.32;84.24
60583;BME280;46415;47.536;19.066;2023-05-11T02:29:38;-18563.38;;;12.30;83.74
60583;BME280;46415;47.536;19.066;2023-05-11T02:32:47;-18561.75;;;12.24;83.06
60583;BME280;46415;47.536;19.066;2023-05-11T02:35:55;-18563.38;;;12.30;79.80
60583;BME280;46415;47.536;19.066;2023-05-11T02:39:06;-18563.78;;;12.32;78.79
60583;BME280;46415;47.536;19.066;2023-05-11T02:42:17;-18564.75;;;12.35;77.83
60583;BME280;46415;47.536;19.066;2023-05-11T02:45:23;-18566.13;;;12.40;76.80
60583;BME280;46415;47.536;19.066;2023-05-11T02:48:41;-18566.13;;;12.40;76.93
60583;BME280;46415;47.536;19.066;2023-05-11T02:51:47;-18565.31;;;12.37;77.76
60583;BME280;46415;47.536;19.066;2023-05-11T02:54:52;-18563.66;;;12.31;77.92
60583;BME280;46415;47.536;19.066;2023-05-11T02:57:56;-18563.25;;;12.30;78.73
60583;BME280;46415;47.536;19.066;2023-05-11T03:01:00;-18560.66;;;12.20;78.66
60583;BME280;46415;47.536;19.066;2023-05-11T03:04:04;-18560.50;;;12.19;78.41
60583;BME280;46415;47.536;19.066;2023-05-11T03:07:08;-18562.28;;;12.26;78.15
60583;BME280;46415;47.536;19.066;2023-05-11T03:10:11;-18562.16;;;12.25;77.83
60583;BME280;46415;47.536;19.066;2023-05-11T03:13:14;-18558.47;;;12.12;78.49
60583;BME280;46415;47.536;19.066;2023-05-11T03:16:19;-18558.31;;;12.11;78.28
60583;BME280;46415;47.536;19.066;2023-05-11T03:19:23;-18558.47;;;12.12;77.59
60583;BME280;46415;47.536;19.066;2023-05-11T03:22:28;-18560.09;;;12.18;77.68
60583;BME280;46415;47.536;19.066;2023-05-11T03:25:32;-18562.28;;;12.26;76.92
60583;BME280;46415;47.536;19.066;2023-05-11T03:28:35;-18560.50;;;12.19;76.91
60583;BME280;46415;47.536;19.066;2023-05-11T03:31:40;-18560.78;;;12.20;76.59
60583;BME280;46415;47.536;19.066;2023-05-11T03:34:42;-18562.28;;;12.26;77.27
60583;BME280;46415;47.536;19.066;2023-05-11T03:37:47;-18563.38;;;12.30;78.52
60583;BME280;46415;47.536;19.066;2023-05-11T03:40:53;-18563.94;;;12.32;79.12
60583;BME280;46415;47.536;19.066;2023-05-11T03:43:59;-18563.78;;;12.32;79.68
60583;BME280;46415;47.536;19.066;2023-05-11T03:47:05;-18563.13;;;12.29;79.39
60583;BME280;46415;47.536;19.066;2023-05-11T03:50:11;-18563.13;;;12.29;80.00
60583;BME280;46415;47.536;19.066;2023-05-11T03:53:15;-18563.25;;;12.30;78.32
60583;BME280;46415;47.536;19.066;2023-05-11T03:56:19;-18563.66;;;12.31;78.59
60583;BME280;46415;47.536;19.066;2023-05-11T03:59:22;-18565.31;;;12.37;78.01
60583;BME280;46415;47.536;19.066;2023-05-11T04:02:26;-18565.03;;;12.36;78.78
60583;BME280;46415;47.536;19.066;2023-05-11T04:05:30;-18564.22;;;12.33;79.19
60583;BME280;46415;47.536;19.066;2023-05-11T04:08:34;-18562.28;;;12.26;79.75
60583;BME280;46415;47.536;19.066;2023-05-11T04:11:38;-18563.66;;;12.31;78.46
60583;BME280;46415;47.536;19.066;2023-05-11T04:14:40;-18562.69;;;12.27;78.30
60583;BME280;46415;47.536;19.066;2023-05-11T04:17:43;-18560.94;;;12.21;78.81
60583;BME280;46415;47.536;19.066;2023-05-11T04:20:46;-18560.50;;;12.19;79.03
60583;BME280;46415;47.536;19.066;2023-05-11T04:23:49;-18557.66;;;12.09;79.91
60583;BME280;46415;47.536;19.066;2023-05-11T04:26:55;-18556.13;;;12.03;80.53
60583;BME280;46415;47.536;19.066;2023-05-11T04:29:59;-18555.88;;;12.02;81.47
60583;BME280;46415;47.536;19.066;2023-05-11T04:33:02;-18556.81;;;12.06;80.64
60583;BME280;46415;47.536;19.066;2023-05-11T04:36:07;-18558.19;;;12.11;80.03
60583;BME280;46415;47.536;19.066;2023-05-11T04:39:09;-18559.28;;;12.15;80.36
60583;BME280;46415;47.536;19.066;2023-05-11T04:42:13;-18561.34;;;12.22;80.82
60583;BME280;46415;47.536;19.066;2023-05-11T04:45:17;-18564.34;;;12.34;80.88
60583;BME280;46415;47.536;19.066;2023-05-11T04:48:20;-18567.91;;;12.47;80.34
60583;BME280;46415;47.536;19.066;2023-05-11T04:51:23;-18575.16;;;12.74;78.71
60583;BME280;46415;47.536;19.066;2023-05-11T04:54:26;-18576.78;;;12.80;79.33
60583;BME280;46415;47.536;19.066;2023-05-11T04:57:29;-18581.16;;;12.96;75.51
60583;BME280;46415;47.536;19.066;2023-05-11T05:00:32;-18584.16;;;13.07;76.44
60583;BME280;46415;47.536;19.066;2023-05-11T05:03:35;-18588.00;;;13.21;72.80
60583;BME280;46415;47.536;19.066;2023-05-11T05:06:38;-18594.41;;;13.45;68.21
60583;BME280;46415;47.536;19.066;2023-05-11T05:09:41;-18597.56;;;13.57;62.08
60583;BME280;46415;47.536;19.066;2023-05-11T05:12:48;-18596.59;;;13.53;60.57
60583;BME280;46415;47.536;19.066;2023-05-11T05:15:51;-18594.28;;;13.44;60.02
60583;BME280;46415;47.536;19.066;2023-05-11T05:18:53;-18592.78;;;13.39;60.10
60583;BME280;46415;47.536;19.066;2023-05-11T05:21:57;-18595.91;;;13.51;59.80
60583;BME280;46415;47.536;19.066;2023-05-11T05:25:00;-18595.91;;;13.51;59.67
60583;BME280;46415;47.536;19.066;2023-05-11T05:28:03;-18597.00;;;13.55;58.33
60583;BME280;46415;47.536;19.066;2023-05-11T05:31:06;-18599.19;;;13.63;58.79
60583;BME280;46415;47.536;19.066;2023-05-11T05:34:09;-18599.59;;;13.64;57.85
60583;BME280;46415;47.536;19.066;2023-05-11T05:37:12;-18599.47;;;13.64;57.53
60583;BME280;46415;47.536;19.066;2023-05-11T05:40:15;-18598.78;;;13.61;57.36
60583;BME280;46415;47.536;19.066;2023-05-11T05:43:18;-18598.38;;;13.60;57.98
60583;BME280;46415;47.536;19.066;2023-05-11T05:46:21;-18600.00;;;13.66;57.18
60583;BME280;46415;47.536;19.066;2023-05-11T05:49:24;-18598.78;;;13.61;57.53
60583;BME280;46415;47.536;19.066;2023-05-11T05:52:27;-18599.59;;;13.64;56.34
60583;BME280;46415;47.536;19.066;2023-05-11T05:55:30;-18601.09;;;13.70;55.70
60583;BME280;46415;47.536;19.066;2023-05-11T05:58:34;-18598.38;;;13.60;56.32
60583;BME280;46415;47.536;19.066;2023-05-11T06:01:37;-18599.72;;;13.65;55.45
60583;BME280;46415;47.536;19.066;2023-05-11T06:04:43;-18600.00;;;13.66;55.64
60583;BME280;46415;47.536;19.066;2023-05-11T06:07:45;-18604.66;;;13.83;56.45
60583;BME280;46415;47.536;19.066;2023-05-11T06:11:03;-18609.84;;;14.02;56.55
60583;BME280;46415;47.536;19.066;2023-05-11T06:14:06;-18618.16;;;14.33;55.00
60583;BME280;46415;47.536;19.066;2023-05-11T06:17:09;-18623.50;;;14.53;54.02
60583;BME280;46415;47.536;19.066;2023-05-11T06:20:12;-18627.03;;;14.66;53.85
60583;BME280;46415;47.536;19.066;2023-05-11T06:23:16;-18638.22;;;15.07;53.17
60583;BME280;46415;47.536;19.066;2023-05-11T06:26:18;-18641.50;;;15.20;52.82
60583;BME280;46415;47.536;19.066;2023-05-11T06:29:23;-18643.28;;;15.26;52.74
60583;BME280;46415;47.536;19.066;2023-05-11T06:32:26;-18645.72;;;15.35;52.45
60583;BME280;46415;47.536;19.066;2023-05-11T06:35:29;-18645.47;;;15.34;53.21
60583;BME280;46415;47.536;19.066;2023-05-11T06:38:32;-18650.50;;;15.53;55.76
60583;BME280;46415;47.536;19.066;2023-05-11T06:41:36;-18650.50;;;15.53;54.72
60583;BME280;46415;47.536;19.066;2023-05-11T06:44:39;-18656.50;;;15.75;52.32
60583;BME280;46415;47.536;19.066;2023-05-11T06:47:44;-18660.06;;;15.88;51.51
60583;BME280;46415;47.536;19.066;2023-05-11T06:50:48;-18656.22;;;15.74;52.00
60583;BME280;46415;47.536;19.066;2023-05-11T06:53:51;-18653.38;;;15.64;52.74
60583;BME280;46415;47.536;19.066;2023-05-11T06:56:53;-18658.28;;;15.82;52.61
60583;BME280;46415;47.536;19.066;2023-05-11T06:59:57;-18663.47;;;16.01;52.79
60583;BME280;46415;47.536;19.066;2023-05-11T07:02:59;-18668.50;;;16.20;51.27
60583;BME280;46415;47.536;19.066;2023-05-11T07:06:03;-18673.00;;;16.37;50.80
60583;BME280;46415;47.536;19.066;2023-05-11T07:09:06;-18675.59;;;16.46;49.49
60583;BME280;46415;47.536;19.066;2023-05-11T07:12:09;-18683.22;;;16.74;50.48
60583;BME280;46415;47.536;19.066;2023-05-11T07:15:12;-18679.81;;;16.62;49.06
60583;BME280;46415;47.536;19.066;2023-05-11T07:18:15;-18670.28;;;16.26;50.17
60583;BME280;46415;47.536;19.066;2023-05-11T07:21:18;-18664.41;;;16.05;50.68
60583;BME280;46415;47.536;19.066;2023-05-11T07:24:23;-18669.31;;;16.23;50.82
60583;BME280;46415;47.536;19.066;2023-05-11T07:27:26;-18673.41;;;16.38;49.44
60583;BME280;46415;47.536;19.066;2023-05-11T07:30:29;-18677.34;;;16.53;49.30
60583;BME280;46415;47.536;19.066;2023-05-11T07:33:31;-18678.31;;;16.56;49.23
60583;BME280;46415;47.536;19.066;2023-05-11T07:36:36;-18687.84;;;16.92;48.24
60583;BME280;46415;47.536;19.066;2023-05-11T07:39:38;-18691.94;;;17.07;46.15
60583;BME280;46415;47.536;19.066;2023-05-11T07:42:41;-18694.66;;;17.17;45.87
60583;BME280;46415;47.536;19.066;2023-05-11T07:45:44;-18697.38;;;17.27;46.61
60583;BME280;46415;47.536;19.066;2023-05-11T07:48:47;-18699.97;;;17.37;45.82
60583;BME280;46415;47.536;19.066;2023-05-11T07:51:50;-18700.09;;;17.37;45.90
60583;BME280;46415;47.536;19.066;2023-05-11T07:54:54;-18705.00;;;17.55;44.95
60583;BME280;46415;47.536;19.066;2023-05-11T07:57:57;-18705.81;;;17.59;44.14
60583;BME280;46415;47.536;19.066;2023-05-11T08:01:00;-18713.84;;;17.88;44.04
60583;BME280;46415;47.536;19.066;2023-05-11T08:04:03;-18716.16;;;17.97;43.76
60583;BME280;46415;47.536;19.066;2023-05-11T08:07:06;-18720.25;;;18.12;43.83
60583;BME280;46415;47.536;19.066;2023-05-11T08:10:10;-18718.47;;;18.06;43.85
60583;BME280;46415;47.536;19.066;2023-05-11T08:13:13;-18722.13;;;18.19;43.42
60583;BME280;46415;47.536;19.066;2023-05-11T08:16:16;-18725.28;;;18.31;42.94
60583;BME280;46415;47.536;19.066;2023-05-11T08:19:19;-18730.56;;;18.51;42.90
60583;BME280;46415;47.536;19.066;2023-05-11T08:22:22;-18737.91;;;18.78;42.48
60583;BME280;46415;47.536;19.066;2023-05-11T08:25:25;-18743.91;;;19.00;41.67
60583;BME280;46415;47.536;19.066;2023-05-11T08:28:27;-18747.97;;;19.15;41.58
60583;BME280;46415;47.536;19.066;2023-05-11T08:31:30;-18750.81;;;19.26;40.21
60583;BME280;46415;47.536;19.066;2023-05-11T08:34:33;-18758.16;;;19.53;39.80
60583;BME280;46415;47.536;19.066;2023-05-11T08:37:36;-18756.69;;;19.48;39.56
60583;BME280;46415;47.536;19.066;2023-05-11T08:40:39;-18764.69;;;19.78;38.83
60583;BME280;46415;47.536;19.066;2023-05-11T08:43:49;-18763.88;;;19.75;38.13
60583;BME280;46415;47.536;19.066;2023-05-11T08:46:52;-18770.25;;;19.98;37.99
60583;BME280;46415;47.536;19.066;2023-05-11T08:50:15;-18771.06;;;20.02;37.98
60583;BME280;46415;47.536;19.066;2023-05-11T08:53:18;-18772.28;;;20.06;37.66
60583;BME280;46415;47.536;19.066;2023-05-11T08:56:21;-18775.13;;;20.17;37.25
60583;BME280;46415;47.536;19.066;2023-05-11T08:59:26;-18774.59;;;20.15;36.67
60583;BME280;46415;47.536;19.066;2023-05-11T09:02:30;-18769.97;;;19.97;37.03
60583;BME280;46415;47.536;19.066;2023-05-11T09:05:36;-18771.75;;;20.04;37.84
60583;BME280;46415;47.536;19.066;2023-05-11T09:08:40;-18769.31;;;19.95;37.75
60583;BME280;46415;47.536;19.066;2023-05-11T09:11:46;-18771.06;;;20.02;37.73
60583;BME280;46415;47.536;19.066;2023-05-11T09:14:49;-18775.41;;;20.18;38.00
60583;BME280;46415;47.536;19.066;2023-05-11T09:17:52;-18782.47;;;20.44;38.34
60583;BME280;46415;47.536;19.066;2023-05-11T09:20:55;-18781.78;;;20.42;36.85
60583;BME280;46415;47.536;19.066;2023-05-11T09:23:58;-18782.75;;;20.45;37.12
60583;BME280;46415;47.536;19.066;2023-05-11T09:27:07;-18795.91;;;20.94;36.91
60583;BME280;46415;47.536;19.066;2023-05-11T09:30:13;-18788.03;;;20.65;36.90
60583;BME280;46415;47.536;19.066;2023-05-11T09:33:24;-18782.75;;;20.45;36.72
60583;BME280;46415;47.536;19.066;2023-05-11T09:36:28;-18786.00;;;20.57;37.52
60583;BME280;46415;47.536;19.066;2023-05-11T09:39:33;-18784.09;;;20.50;37.52
60583;BME280;46415;47.536;19.066;2023-05-11T09:42:48;-18790.34;;;20.73;37.54
60583;BME280;46415;47.536;19.066;2023-05-11T09:45:56;-18796.72;;;20.97;36.37
60583;BME280;46415;47.536;19.066;2023-05-11T09:48:59;-18800.66;;;21.12;36.04
60583;BME280;46415;47.536;19.066;2023-05-11T09:52:02;-18795.91;;;20.94;35.92
60583;BME280;46415;47.536;19.066;2023-05-11T09:55:09;-18792.78;;;20.83;36.43
60583;BME280;46415;47.536;19.066;2023-05-11T09:58:12;-18797.66;;;21.01;36.31
60583;BME280;46415;47.536;19.066;2023-05-11T10:01:16;-18812.72;;;21.57;34.87
60583;BME280;46415;47.536;19.066;2023-05-11T10:04:28;-18819.38;;;21.82;34.78
60583;BME280;46415;47.536;19.066;2023-05-11T10:07:32;-18823.97;;;21.99;34.55
60583;BME280;46415;47.536;19.066;2023-05-11T10:10:36;-18832.38;;;22.30;34.29
60583;BME280;46415;47.536;19.066;2023-05-11T10:13:39;-18829.66;;;22.20;33.64
60583;BME280;46415;47.536;19.066;2023-05-11T10:16:42;-18819.09;;;21.81;33.83
60583;BME280;46415;47.536;19.066;2023-05-11T10:20:51;-18827.22;;;22.11;33.72
60583;BME280;46415;47.536;19.066;2023-05-11T10:23:56;-18827.22;;;22.11;33.72
60583;BME280;46415;47.536;19.066;2023-05-11T10:26:59;-18816.38;;;21.71;33.29
60583;BME280;46415;47.536;19.066;2023-05-11T10:30:04;-18815.72;;;21.68;32.16
60583;BME280;46415;47.536;19.066;2023-05-11T10:33:09;-18816.53;;;21.71;32.99
60583;BME280;46415;47.536;19.066;2023-05-11T10:36:12;-18828.03;;;22.14;32.14
60583;BME280;46415;47.536;19.066;2023-05-11T10:39:21;-18827.50;;;22.12;30.36
60583;BME280;46415;47.536;19.066;2023-05-11T10:45:48;-18837.66;;;22.50;30.50
60583;BME280;46415;47.536;19.066;2023-05-11T10:52:05;-18836.03;;;22.44;31.63
60583;BME280;46415;47.536;19.066;2023-05-11T11:02:07;-18847.56;;;22.87;29.79
60583;BME280;46415;47.536;19.066;2023-05-11T11:05:12;-18847.81;;;22.88;30.46
60583;BME280;46415;47.536;19.066;2023-05-11T11:08:19;-18851.88;;;23.03;30.03
60583;BME280;46415;47.536;19.066;2023-05-11T11:11:34;-18849.44;;;22.94;29.95
60583;BME280;46415;47.536;19.066;2023-05-11T11:21:53;-18834.00;;;22.36;30.23
60583;BME280;46415;47.536;19.066;2023-05-11T11:24:56;-18841.72;;;22.65;30.05
60583;BME280;46415;47.536;19.066;2023-05-11T11:27:58;-18828.59;;;22.16;31.26
60583;BME280;46415;47.536;19.066;2023-05-11T11:31:23;-18831.03;;;22.25;30.85
60583;BME280;46415;47.536;19.066;2023-05-11T11:38:00;-18826.81;;;22.10;30.42
60583;BME280;46415;47.536;19.066;2023-05-11T11:41:07;-18837.78;;;22.51;29.97
60583;BME280;46415;47.536;19.066;2023-05-11T11:44:20;-18839.56;;;22.57;30.24
60583;BME280;46415;47.536;19.066;2023-05-11T11:47:23;-18850.81;;;22.99;29.62
60583;BME280;46415;47.536;19.066;2023-05-11T11:50:28;-18859.31;;;23.31;29.75
60583;BME280;46415;47.536;19.066;2023-05-11T11:56:44;-18847.41;;;22.87;29.26
60583;BME280;46415;47.536;19.066;2023-05-11T11:59:48;-18847.81;;;22.88;29.62
60583;BME280;46415;47.536;19.066;2023-05-11T12:02:51;-18844.84;;;22.77;29.52
60583;BME280;46415;47.536;19.066;2023-05-11T12:05:59;-18850.94;;;23.00;29.90
60583;BME280;46415;47.536;19.066;2023-05-11T12:09:03;-18851.06;;;23.00;29.11
60583;BME280;46415;47.536;19.066;2023-05-11T12:12:07;-18844.69;;;22.76;29.25
60583;BME280;46415;47.536;19.066;2023-05-11T12:15:22;-18840.38;;;22.60;30.18
60583;BME280;46415;47.536;19.066;2023-05-11T12:18:25;-18834.69;;;22.39;31.17
60583;BME280;46415;47.536;19.066;2023-05-11T12:21:29;-18838.34;;;22.53;30.81
60583;BME280;46415;47.536;19.066;2023-05-11T12:24:33;-18845.53;;;22.79;30.47
60583;BME280;46415;47.536;19.066;2023-05-11T12:28:02;-18838.87;;;22.55;30.36
60583;BME280;46415;47.536;19.066;2023-05-11T12:31:06;-18842.25;;;22.67;30.54
60583;BME280;46415;47.536;19.066;2023-05-11T12:34:16;-18844.16;;;22.74;30.50
60583;BME280;46415;47.536;19.066;2023-05-11T12:37:19;-18859.47;;;23.32;29.40
60583;BME280;46415;47.536;19.066;2023-05-11T12:40:23;-18853.22;;;23.08;28.94
60583;BME280;46415;47.536;19.066;2023-05-11T12:43:26;-18859.06;;;23.30;29.25
60583;BME280;46415;47.536;19.066;2023-05-11T12:46:28;-18861.34;;;23.39;29.36
60583;BME280;46415;47.536;19.066;2023-05-11T12:49:32;-18851.19;;;23.01;29.57
60583;BME280;46415;47.536;19.066;2023-05-11T12:52:34;-18848.22;;;22.90;30.10
60583;BME280;46415;47.536;19.066;2023-05-11T12:55:37;-18852.97;;;23.07;29.66
60583;BME280;46415;47.536;19.066;2023-05-11T12:58:40;-18853.63;;;23.10;29.36
60583;BME280;46415;47.536;19.066;2023-05-11T13:01:43;-18850.94;;;23.00;29.84
60583;BME280;46415;47.536;19.066;2023-05-11T13:04:46;-18848.78;;;22.92;29.61
60583;BME280;46415;47.536;19.066;2023-05-11T13:08:03;-18857.97;;;23.26;29.10
60583;BME280;46415;47.536;19.066;2023-05-11T13:11:20;-18850.13;;;22.97;29.14
60583;BME280;46415;47.536;19.066;2023-05-11T13:14:29;-18855.00;;;23.15;29.54
60583;BME280;46415;47.536;19.066;2023-05-11T13:17:36;-18860.94;;;23.37;29.20
60583;BME280;46415;47.536;19.066;2023-05-11T13:20:39;-18860.00;;;23.34;28.86
60583;BME280;46415;47.536;19.066;2023-05-11T13:23:48;-18862.28;;;23.42;28.10
60583;BME280;46415;47.536;19.066;2023-05-11T13:26:53;-18868.25;;;23.65;28.34
60583;BME280;46415;47.536;19.066;2023-05-11T13:29:57;-18868.94;;;23.67;28.75
60583;BME280;46415;47.536;19.066;2023-05-11T13:32:59;-18871.09;;;23.75;29.27
60583;BME280;46415;47.536;19.066;2023-05-11T13:36:02;-18874.34;;;23.87;27.50
60583;BME280;46415;47.536;19.066;2023-05-11T13:39:06;-18867.31;;;23.61;28.56
60583;BME280;46415;47.536;19.066;2023-05-11T13:42:09;-18860.81;;;23.37;29.05
60583;BME280;46415;47.536;19.066;2023-05-11T13:45:12;-18872.72;;;23.81;29.17
60583;BME280;46415;47.536;19.066;2023-05-11T13:48:14;-18877.59;;;23.99;27.70
60583;BME280;46415;47.536;19.066;2023-05-11T13:51:18;-18887.19;;;24.35;27.31
60583;BME280;46415;47.536;19.066;2023-05-11T13:54:20;-18880.56;;;24.11;27.59
60583;BME280;46415;47.536;19.066;2023-05-11T13:57:24;-18874.75;;;23.89;27.36
60583;BME280;46415;47.536;19.066;2023-05-11T14:00:26;-18867.59;;;23.62;27.43
60583;BME280;46415;47.536;19.066;2023-05-11T14:03:29;-18849.44;;;22.94;28.28
60583;BME280;46415;47.536;19.066;2023-05-11T14:06:33;-18842.41;;;22.68;28.52
60583;BME280;46415;47.536;19.066;2023-05-11T14:09:36;-18833.06;;;22.33;28.41
60583;BME280;46415;47.536;19.066;2023-05-11T14:12:39;-18831.97;;;22.29;28.79
60583;BME280;46415;47.536;19.066;2023-05-11T14:15:42;-18836.56;;;22.46;28.38
60583;BME280;46415;47.536;19.066;2023-05-11T14:18:45;-18842.25;;;22.67;28.32
60583;BME280;46415;47.536;19.066;2023-05-11T14:21:49;-18844.31;;;22.75;27.99
60583;BME280;46415;47.536;19.066;2023-05-11T14:24:51;-18844.56;;;22.76;28.19
60583;BME280;46415;47.536;19.066;2023-05-11T14:27:54;-18844.56;;;22.76;27.86
60583;BME280;46415;47.536;19.066;2023-05-11T14:30:57;-18841.19;;;22.63;27.75
60583;BME280;46415;47.536;19.066;2023-05-11T14:34:01;-18838.59;;;22.54;27.94
60583;BME280;46415;47.536;19.066;2023-05-11T14:37:04;-18834.41;;;22.38;28.24
60583;BME280;46415;47.536;19.066;2023-05-11T14:40:07;-18827.22;;;22.11;28.34
60583;BME280;46415;47.536;19.066;2023-05-11T14:43:10;-18829.66;;;22.20;27.79
60583;BME280;46415;47.536;19.066;2023-05-11T14:46:14;-18830.34;;;22.23;28.13
60583;BME280;46415;47.536;19.066;2023-05-11T14:49:16;-18836.31;;;22.45;28.06
60583;BME280;46415;47.536;19.066;2023-05-11T14:52:19;-18842.53;;;22.68;28.29
60583;BME280;46415;47.536;19.066;2023-05-11T14:55:22;-18840.91;;;22.62;28.30
60583;BME280;46415;47.536;19.066;2023-05-11T14:58:25;-18854.31;;;23.12;27.94
60583;BME280;46415;47.536;19.066;2023-05-11T15:01:28;-18850.66;;;22.99;28.17
60583;BME280;46415;47.536;19.066;2023-05-11T15:04:32;-18846.72;;;22.84;28.37
60583;BME280;46415;47.536;19.066;2023-05-11T15:07:35;-18841.03;;;22.63;29.23
60583;BME280;46415;47.536;19.066;2023-05-11T15:10:40;-18833.47;;;22.34;29.52
60583;BME280;46415;47.536;19.066;2023-05-11T15:13:42;-18827.91;;;22.14;29.92
60583;BME280;46415;47.536;19.066;2023-05-11T15:16:45;-18817.47;;;21.75;30.37
60583;BME280;46415;47.536;19.066;2023-05-11T15:19:48;-18812.84;;;21.57;30.29
60583;BME280;46415;47.536;19.066;2023-05-11T15:22:51;-18804.72;;;21.27;30.78
60583;BME280;46415;47.536;19.066;2023-05-11T15:25:53;-18803.38;;;21.22;31.00
60583;BME280;46415;47.536;19.066;2023-05-11T15:29:00;-18799.84;;;21.09;31.20
60583;BME280;46415;47.536;19.066;2023-05-11T15:32:02;-18797.41;;;21.00;31.48
60583;BME280;46415;47.536;19.066;2023-05-11T15:35:06;-18794.81;;;20.90;31.69
60583;BME280;46415;47.536;19.066;2023-05-11T15:38:08;-18793.06;;;20.84;31.73
60583;BME280;46415;47.536;19.066;2023-05-11T15:41:11;-18786.00;;;20.57;32.33
60583;BME280;46415;47.536;19.066;2023-05-11T15:44:14;-18781.25;;;20.40;32.72
60583;BME280;46415;47.536;19.066;2023-05-11T15:47:17;-18780.44;;;20.36;32.97
60583;BME280;46415;47.536;19.066;2023-05-11T15:50:20;-18778.94;;;20.31;33.15
60583;BME280;46415;47.536;19.066;2023-05-11T15:53:24;-18780.03;;;20.35;33.15
60583;BME280;46415;47.536;19.066;2023-05-11T15:56:26;-18776.50;;;20.22;33.70
60583;BME280;46415;47.536;19.066;2023-05-11T15:59:29;-18776.09;;;20.20;33.93
60583;BME280;46415;47.536;19.066;2023-05-11T16:02:34;-18775.13;;;20.17;33.77
60583;BME280;46415;47.536;19.066;2023-05-11T16:05:37;-18772.03;;;20.05;34.30
60583;BME280;46415;47.536;19.066;2023-05-11T16:08:40;-18768.91;;;19.93;34.50
60583;BME280;46415;47.536;19.066;2023-05-11T16:11:43;-18763.31;;;19.73;35.32
60583;BME280;46415;47.536;19.066;2023-05-11T16:14:46;-18764.41;;;19.77;35.40
60583;BME280;46415;47.536;19.066;2023-05-11T16:17:49;-18766.19;;;19.83;35.52
60583;BME280;46415;47.536;19.066;2023-05-11T16:20:52;-18765.09;;;19.79;35.77
60583;BME280;46415;47.536;19.066;2023-05-11T16:23:55;-18759.81;;;19.60;36.06
60583;BME280;46415;47.536;19.066;2023-05-11T16:26:58;-18757.75;;;19.52;36.14